Inyokern, CA (93527)

8:24 AM PST on February 12, 2016 (GMT -0800)
5 miles West of town | | Change Station
CLOSE
Current Station
Personal Weather Station
Location: Ridgecrest, CA
Elevation: 2400 ft
Nearby Weather Stations

Elev 2400 ft 35.65 °N, 117.76 °W | Updated 4 minutes ago

Clear
Clear
49.5 °F
Feels Like 50 °F
N
1.0
Wind Variable Wind from SSW
Gusts 4.0 mph

Today
High -- | Low -- °F
--% Chance of Precip.
Yesterday
High -- | Low -- °F
Precip. -- in
Pressure 30.28 in
Visibility 10.0 miles
Clouds Clear
Windchill 50 °F
Dew Point 27 °F
Humidity 41%
Rainfall 0.00 in
Snow Depth Not available.
6:41 AM 5:29 PM
Waxing Crescent, 21% visible
METAR KNID 121556Z AUTO 00000KT 10SM CLR 06/M03 A3026 RMK AO2 SLP252 T00611028 $
Pressure 30.28 in
Visibility 10.0 miles
Clouds Clear
Windchill 50 °F
Dew Point 27 °F
Humidity 41%
Rainfall 0.00 in
Snow Depth Not available.
6:41 AM 5:29 PM
Waxing Crescent, 21% visible
METAR KNID 121556Z AUTO 00000KT 10SM CLR 06/M03 A3026 RMK AO2 SLP252 T00611028 $

10-Day Weather Forecast

Almanac

Astronomy

Feb. 12, 2016 Rise Set
Actual Time
Civil Twilight
Nautical Twilight
Astronomical Twilight
Moon
Length of Visible Light
Length of Day
Tomorrow will be .
, % of the Moon is Illuminated

Today's Extremes

State Highs State Lows

Community

WunderPhotos

Upload Photos

1,892,350 photos uploaded!

WunderBlog® & News

Nearby

Air Quality

  Air Quality AQ Index Pollutant
Not available.

Snow Depth

Station Depth Elevation

Earthquake Activity

City Distance Mag. Time & Date
Minimum magnitude displayed is 2.5.

Coastal Water Temperatures

Place Temperature

Stations

Nearby Weather Stations

Station Location Temp. Windchill Dew Point Humidity Wind Precip. Elev Updated Type
                   

Watches & Warnings

There are currently no watches in effect.